createdAt,value
2018-08-30T00:00:15.368Z,989.55
2018-08-30T00:01:15.548Z,989.53
2018-08-30T00:02:15.738Z,989.52
2018-08-30T00:03:15.913Z,989.52
2018-08-30T00:04:16.088Z,989.48
2018-08-30T00:05:16.276Z,989.47
2018-08-30T00:06:16.461Z,989.46
2018-08-30T00:07:16.676Z,989.53
2018-08-30T00:08:16.861Z,989.48
2018-08-30T00:09:17.037Z,989.47
2018-08-30T00:10:17.223Z,989.47
2018-08-30T00:11:17.419Z,989.48
2018-08-30T00:12:17.601Z,989.44
2018-08-30T00:13:17.786Z,989.46
2018-08-30T00:14:17.977Z,989.47
2018-08-30T00:15:18.170Z,989.52
2018-08-30T00:16:18.361Z,989.51
2018-08-30T00:17:18.547Z,989.49
2018-08-30T00:18:18.736Z,989.48
2018-08-30T00:19:18.931Z,989.54
2018-08-30T00:20:19.113Z,989.57
2018-08-30T00:21:19.301Z,989.60
2018-08-30T00:22:19.486Z,989.62
2018-08-30T00:23:19.675Z,989.62
2018-08-30T00:24:19.866Z,989.62
2018-08-30T00:25:20.048Z,989.64
2018-08-30T00:26:20.247Z,989.62
2018-08-30T00:27:20.444Z,989.61
2018-08-30T00:28:20.637Z,989.63
2018-08-30T00:29:20.822Z,989.64
2018-08-30T00:30:20.999Z,989.65
2018-08-30T00:31:21.190Z,989.66
2018-08-30T00:32:21.380Z,989.67
2018-08-30T00:33:21.556Z,989.66
2018-08-30T00:34:21.739Z,989.63
2018-08-30T00:35:21.920Z,989.68
2018-08-30T00:36:22.105Z,989.65
2018-08-30T00:37:22.293Z,989.65
2018-08-30T00:38:22.482Z,989.64
2018-08-30T00:39:22.665Z,989.63
2018-08-30T00:40:22.855Z,989.64
2018-08-30T00:41:23.064Z,989.67
2018-08-30T00:42:23.234Z,989.71
2018-08-30T00:43:23.411Z,989.70
2018-08-30T00:44:23.600Z,989.73
2018-08-30T00:45:23.779Z,989.74
2018-08-30T00:46:23.972Z,989.74
2018-08-30T00:47:24.162Z,989.75
2018-08-30T00:48:24.347Z,989.75
2018-08-30T00:49:24.528Z,989.78
2018-08-30T00:50:24.719Z,989.77
2018-08-30T00:51:24.901Z,989.80
2018-08-30T00:52:25.091Z,989.82
2018-08-30T00:53:25.276Z,989.84
2018-08-30T00:54:25.467Z,989.84
2018-08-30T00:55:25.648Z,989.81
2018-08-30T00:56:25.825Z,989.80
2018-08-30T00:57:26.018Z,989.85
2018-08-30T00:58:26.199Z,989.83
2018-08-30T00:59:26.405Z,989.83
2018-08-30T01:00:26.588Z,989.85
2018-08-30T01:01:26.771Z,989.85
2018-08-30T01:02:26.964Z,989.85
2018-08-30T01:03:27.148Z,989.88
2018-08-30T01:04:27.322Z,989.84
2018-08-30T01:05:27.503Z,989.84
2018-08-30T01:06:27.692Z,989.85
2018-08-30T01:07:27.882Z,989.86
2018-08-30T01:08:28.056Z,989.87
2018-08-30T01:09:28.238Z,989.88
2018-08-30T01:10:28.423Z,989.90
2018-08-30T01:11:28.600Z,989.93
2018-08-30T01:12:28.783Z,989.89
2018-08-30T01:13:28.974Z,989.91
2018-08-30T01:14:29.160Z,989.93
2018-08-30T01:15:29.344Z,989.88
2018-08-30T01:16:29.519Z,989.93
2018-08-30T01:17:29.701Z,989.93
2018-08-30T01:18:29.878Z,989.95
2018-08-30T01:19:30.058Z,989.98
2018-08-30T01:20:30.241Z,989.97
2018-08-30T01:21:30.424Z,989.90
2018-08-30T01:22:30.607Z,989.94
2018-08-30T01:23:30.786Z,989.93
2018-08-30T01:24:30.969Z,989.93
2018-08-30T01:25:31.161Z,989.94
2018-08-30T01:26:31.335Z,989.93
2018-08-30T01:27:31.515Z,989.94
2018-08-30T01:28:31.694Z,989.95
2018-08-30T01:29:31.878Z,989.95
2018-08-30T01:30:32.072Z,989.95
2018-08-30T01:31:32.246Z,989.93
2018-08-30T01:32:32.430Z,989.95
2018-08-30T01:33:32.613Z,989.99
2018-08-30T01:34:32.802Z,989.96
2018-08-30T01:35:32.990Z,989.98
2018-08-30T01:36:33.165Z,989.96
2018-08-30T01:37:33.344Z,989.98
2018-08-30T01:38:33.523Z,989.93
2018-08-30T01:39:33.714Z,989.93
2018-08-30T01:40:33.907Z,989.95
2018-08-30T01:41:34.092Z,989.96
2018-08-30T01:42:34.273Z,989.96
2018-08-30T01:43:34.454Z,989.96
2018-08-30T01:44:34.635Z,989.99
2018-08-30T01:45:34.827Z,989.99
2018-08-30T01:46:35.010Z,990.01
2018-08-30T01:47:35.191Z,990.01
2018-08-30T01:48:35.374Z,989.98
2018-08-30T01:49:35.583Z,990.04
2018-08-30T01:50:35.758Z,990.01
2018-08-30T01:51:35.945Z,990.01
2018-08-30T01:52:36.124Z,990.03
2018-08-30T01:53:36.312Z,990.05
2018-08-30T01:54:36.487Z,990.05
2018-08-30T01:55:36.675Z,990.05
2018-08-30T01:56:36.861Z,990.05
2018-08-30T01:57:37.042Z,990.08
2018-08-30T01:58:37.227Z,990.08
2018-08-30T01:59:37.410Z,990.12
2018-08-30T02:00:37.603Z,990.12
2018-08-30T02:01:37.790Z,990.16
2018-08-30T02:02:37.974Z,990.14
2018-08-30T02:03:38.159Z,990.20
2018-08-30T02:04:38.338Z,990.21
2018-08-30T02:05:38.517Z,990.18
2018-08-30T02:06:38.699Z,990.19
2018-08-30T02:07:38.871Z,990.18
2018-08-30T02:08:39.057Z,990.17
2018-08-30T02:09:39.235Z,990.18
2018-08-30T02:10:39.415Z,990.17
2018-08-30T02:11:39.596Z,990.20
2018-08-30T02:12:39.775Z,990.20
2018-08-30T02:13:39.962Z,990.18
2018-08-30T02:14:40.146Z,990.25
2018-08-30T02:15:40.327Z,990.27
2018-08-30T02:16:40.508Z,990.30
2018-08-30T02:17:40.693Z,990.31
2018-08-30T02:18:40.874Z,990.33
2018-08-30T02:19:41.065Z,990.35
2018-08-30T02:20:41.246Z,990.31
2018-08-30T02:21:41.429Z,990.33
2018-08-30T02:22:41.614Z,990.34
2018-08-30T02:23:41.793Z,990.35
2018-08-30T02:24:41.984Z,990.42
2018-08-30T02:25:42.160Z,990.37
2018-08-30T02:26:42.361Z,990.38
2018-08-30T02:27:42.540Z,990.42
2018-08-30T02:28:42.722Z,990.40
2018-08-30T02:29:42.900Z,990.45
2018-08-30T02:30:43.093Z,990.42
2018-08-30T02:31:43.287Z,990.44
2018-08-30T02:32:43.454Z,990.46
2018-08-30T02:33:43.631Z,990.48
2018-08-30T02:34:43.814Z,990.43
2018-08-30T02:35:43.995Z,990.41
2018-08-30T02:36:44.181Z,990.41
2018-08-30T02:37:44.354Z,990.46
2018-08-30T02:38:44.539Z,990.47
2018-08-30T02:39:44.724Z,990.42
2018-08-30T02:40:44.920Z,990.45
2018-08-30T02:41:53.882Z,990.44
2018-08-30T02:42:45.309Z,990.39
2018-08-30T02:43:45.497Z,990.35
2018-08-30T02:44:45.671Z,990.37
2018-08-30T02:45:45.865Z,990.33
2018-08-30T02:46:46.040Z,990.34
2018-08-30T02:47:46.221Z,990.38
2018-08-30T02:48:46.423Z,990.38
2018-08-30T02:49:46.614Z,990.39
2018-08-30T02:50:46.788Z,990.37
2018-08-30T02:51:46.972Z,990.36
2018-08-30T02:52:47.154Z,990.35
2018-08-30T02:53:47.340Z,990.36
2018-08-30T02:54:47.523Z,990.37
2018-08-30T02:55:47.707Z,990.35
2018-08-30T02:56:47.885Z,990.40
2018-08-30T02:57:48.070Z,990.40
2018-08-30T02:58:48.247Z,990.45
2018-08-30T02:59:48.436Z,990.45
2018-08-30T03:00:48.706Z,990.44
2018-08-30T03:01:48.798Z,990.48
2018-08-30T03:02:48.989Z,990.45
2018-08-30T03:03:49.169Z,990.40
2018-08-30T03:04:49.348Z,990.46
2018-08-30T03:05:49.535Z,990.43
2018-08-30T03:06:49.720Z,990.47
2018-08-30T03:07:49.899Z,990.44
2018-08-30T03:08:50.087Z,990.43
2018-08-30T03:09:50.260Z,990.44
2018-08-30T03:10:50.436Z,990.48
2018-08-30T03:11:50.626Z,990.52
2018-08-30T03:12:50.813Z,990.56
2018-08-30T03:13:50.998Z,990.52
2018-08-30T03:14:51.185Z,990.53
2018-08-30T03:15:51.378Z,990.50
2018-08-30T03:16:51.564Z,990.55
2018-08-30T03:17:51.751Z,990.53
2018-08-30T03:18:51.934Z,990.51
2018-08-30T03:19:52.125Z,990.50
2018-08-30T03:20:52.308Z,990.50
2018-08-30T03:21:52.927Z,990.50
2018-08-30T03:22:52.637Z,990.45
2018-08-30T03:23:52.852Z,990.49
2018-08-30T03:24:53.034Z,990.52
2018-08-30T03:25:53.215Z,990.55
2018-08-30T03:26:53.397Z,990.56
2018-08-30T03:27:53.584Z,990.56
2018-08-30T03:28:53.767Z,990.60
2018-08-30T03:29:53.942Z,990.63
2018-08-30T03:30:54.170Z,990.62
2018-08-30T03:31:54.322Z,990.61
2018-08-30T03:32:54.508Z,990.62
2018-08-30T03:33:54.698Z,990.64
2018-08-30T03:34:54.869Z,990.66
2018-08-30T03:35:55.056Z,990.65
2018-08-30T03:36:55.288Z,990.67
2018-08-30T03:37:55.348Z,990.65
2018-08-30T03:38:55.539Z,990.60
2018-08-30T03:39:55.725Z,990.61
2018-08-30T03:40:55.903Z,990.62
2018-08-30T03:41:56.090Z,990.56
2018-08-30T03:42:56.700Z,990.51
2018-08-30T03:43:56.871Z,990.55
2018-08-30T03:44:56.901Z,990.58
2018-08-30T03:46:00.858Z,990.61
2018-08-30T03:46:56.992Z,990.61
2018-08-30T03:47:57.122Z,990.58
2018-08-30T03:48:59.216Z,990.62
2018-08-30T03:49:59.614Z,990.63
2018-08-30T03:50:57.712Z,990.62
2018-08-30T03:51:57.892Z,990.64
2018-08-30T03:52:58.078Z,990.65
2018-08-30T03:53:58.256Z,990.63
2018-08-30T03:54:58.498Z,990.66
2018-08-30T03:55:58.616Z,990.64
2018-08-30T03:56:58.806Z,990.68
2018-08-30T03:57:58.983Z,990.65
2018-08-30T03:58:59.161Z,990.67
2018-08-30T03:59:59.404Z,990.70
2018-08-30T04:00:59.562Z,990.68
2018-08-30T04:01:59.749Z,990.70
2018-08-30T04:02:59.941Z,990.67
2018-08-30T04:04:00.153Z,990.70
2018-08-30T04:05:00.352Z,990.75
2018-08-30T04:06:00.541Z,990.74
2018-08-30T04:07:00.736Z,990.71
2018-08-30T04:08:00.919Z,990.74
2018-08-30T04:09:01.098Z,990.73
2018-08-30T04:10:01.283Z,990.75
2018-08-30T04:11:01.468Z,990.76
2018-08-30T04:12:01.659Z,990.74
2018-08-30T04:13:01.856Z,990.74
2018-08-30T04:14:02.044Z,990.76
2018-08-30T04:15:02.239Z,990.77
2018-08-30T04:16:02.426Z,990.75
2018-08-30T04:17:02.622Z,990.77
2018-08-30T04:18:02.808Z,990.76
2018-08-30T04:19:02.989Z,990.78
2018-08-30T04:20:03.180Z,990.84
2018-08-30T04:21:03.378Z,990.82
2018-08-30T04:22:03.624Z,990.84
2018-08-30T04:23:03.743Z,990.87
2018-08-30T04:24:03.933Z,990.89
2018-08-30T04:25:04.116Z,990.88
2018-08-30T04:26:04.325Z,990.91
2018-08-30T04:27:04.572Z,990.89
2018-08-30T04:28:04.734Z,990.87
2018-08-30T04:29:04.792Z,990.90
2018-08-30T04:30:04.968Z,990.89
2018-08-30T04:31:05.150Z,990.93
2018-08-30T04:32:05.339Z,991.00
2018-08-30T04:33:07.509Z,991.01
2018-08-30T04:34:07.756Z,991.00
2018-08-30T04:35:07.136Z,991.09
2018-08-30T04:36:06.953Z,991.08
2018-08-30T04:37:09.650Z,991.16
2018-08-30T04:38:07.766Z,991.07
2018-08-30T04:39:07.219Z,991.14
2018-08-30T04:40:07.571Z,991.14
2018-08-30T04:41:08.341Z,991.16
2018-08-30T04:42:11.462Z,991.16
2018-08-30T04:43:08.910Z,991.18
2018-08-30T04:44:10.914Z,991.21
2018-08-30T04:45:10.019Z,991.19
2018-08-30T04:46:09.037Z,991.19
2018-08-30T04:47:08.940Z,991.21
2018-08-30T04:48:10.052Z,991.25
2018-08-30T04:49:10.882Z,991.27
2018-08-30T04:50:08.942Z,991.27
2018-08-30T04:51:10.730Z,991.33
2018-08-30T04:52:11.520Z,991.30
2018-08-30T04:53:11.096Z,991.32
2018-08-30T04:54:12.527Z,991.28
2018-08-30T04:55:11.796Z,991.34
2018-08-30T04:56:12.487Z,991.34
2018-08-30T04:57:09.629Z,991.38
2018-08-30T04:58:09.492Z,991.44
2018-08-30T04:59:09.669Z,991.34
2018-08-30T05:00:09.920Z,991.49
2018-08-30T05:01:10.000Z,991.52
2018-08-30T05:02:10.183Z,991.49
2018-08-30T05:03:10.364Z,991.56
2018-08-30T05:04:10.554Z,991.62
2018-08-30T05:05:10.801Z,991.61
2018-08-30T05:06:11.856Z,991.64
2018-08-30T05:07:11.864Z,991.67
2018-08-30T05:08:12.536Z,991.70
2018-08-30T05:09:12.803Z,991.74
2018-08-30T05:10:14.018Z,991.70
2018-08-30T05:11:12.994Z,991.80
2018-08-30T05:12:14.396Z,991.80
2018-08-30T05:13:14.789Z,991.86
2018-08-30T05:14:15.102Z,991.86
2018-08-30T05:15:14.455Z,991.92
2018-08-30T05:16:15.257Z,991.95
2018-08-30T05:17:15.567Z,991.91
2018-08-30T05:18:16.292Z,992.02
2018-08-30T05:19:14.495Z,991.98
2018-08-30T05:20:13.989Z,992.01
2018-08-30T05:21:14.089Z,992.00
2018-08-30T05:22:15.581Z,991.98
2018-08-30T05:23:14.835Z,992.04
2018-08-30T05:24:16.680Z,992.01
2018-08-30T05:25:15.210Z,992.03
2018-08-30T05:26:15.549Z,992.03
2018-08-30T05:27:16.091Z,992.03
2018-08-30T05:28:15.566Z,992.07
2018-08-30T05:29:15.543Z,992.09
2018-08-30T05:30:16.938Z,992.06
2018-08-30T05:31:16.742Z,992.11
2018-08-30T05:32:15.753Z,992.12
2018-08-30T05:33:16.277Z,992.14
2018-08-30T05:34:16.401Z,992.16
2018-08-30T05:35:16.467Z,992.17
2018-08-30T05:36:18.747Z,992.17
2018-08-30T05:37:17.398Z,992.19
2018-08-30T05:38:15.886Z,992.21
2018-08-30T05:39:16.076Z,992.22
2018-08-30T05:40:16.255Z,992.25
2018-08-30T05:41:16.427Z,992.24
2018-08-30T05:42:16.610Z,992.28
2018-08-30T05:43:16.797Z,992.29
2018-08-30T05:44:16.984Z,992.30
2018-08-30T05:45:17.167Z,992.36
2018-08-30T05:46:17.377Z,992.35
2018-08-30T05:47:17.556Z,992.34
2018-08-30T05:48:17.747Z,992.35
2018-08-30T05:49:17.922Z,992.34
2018-08-30T05:50:18.113Z,992.34
2018-08-30T05:51:18.290Z,992.35
2018-08-30T05:52:18.465Z,992.36
2018-08-30T05:53:18.643Z,992.34
2018-08-30T05:54:18.834Z,992.39
2018-08-30T05:55:19.771Z,992.37
2018-08-30T05:56:19.180Z,992.40
2018-08-30T05:57:19.358Z,992.37
2018-08-30T05:58:19.570Z,992.43
2018-08-30T05:59:19.757Z,992.42
2018-08-30T06:00:19.954Z,992.44
2018-08-30T06:01:20.130Z,992.48
2018-08-30T06:02:20.308Z,992.45
2018-08-30T06:03:20.492Z,992.45
2018-08-30T06:04:20.668Z,992.51
2018-08-30T06:05:20.848Z,992.51
2018-08-30T06:06:21.047Z,992.51
2018-08-30T06:07:21.326Z,992.52
2018-08-30T06:08:21.465Z,992.56
2018-08-30T06:09:21.589Z,992.55
2018-08-30T06:10:21.772Z,992.58
2018-08-30T06:11:21.957Z,992.60
2018-08-30T06:12:22.136Z,992.64
2018-08-30T06:13:22.319Z,992.67
2018-08-30T06:14:22.503Z,992.70
2018-08-30T06:15:22.676Z,992.70
2018-08-30T06:16:22.855Z,992.74
2018-08-30T06:17:23.038Z,992.75
2018-08-30T06:18:23.226Z,992.76
2018-08-30T06:19:23.414Z,992.79
2018-08-30T06:20:23.599Z,992.81
2018-08-30T06:21:23.778Z,992.78
2018-08-30T06:22:23.960Z,992.83
2018-08-30T06:23:24.150Z,992.89
2018-08-30T06:24:24.334Z,992.79
2018-08-30T06:25:24.516Z,992.81
2018-08-30T06:26:24.696Z,992.82
2018-08-30T06:27:24.914Z,992.85
2018-08-30T06:28:24.983Z,992.84
2018-08-30T06:29:25.250Z,992.88
2018-08-30T06:30:25.344Z,992.83
2018-08-30T06:31:25.528Z,992.81
2018-08-30T06:32:25.701Z,992.89
2018-08-30T06:33:25.894Z,992.86
2018-08-30T06:34:26.074Z,992.88
2018-08-30T06:35:26.269Z,992.87
2018-08-30T06:36:26.681Z,992.85
2018-08-30T06:37:26.657Z,992.93
2018-08-30T06:38:26.849Z,992.93
2018-08-30T06:39:27.031Z,992.99
2018-08-30T06:40:27.216Z,992.99
2018-08-30T06:41:27.397Z,993.01
2018-08-30T06:42:27.575Z,993.05
2018-08-30T06:43:28.108Z,993.03
2018-08-30T06:44:28.266Z,993.08
2018-08-30T06:45:28.171Z,993.09
2018-08-30T06:46:28.320Z,993.11
2018-08-30T06:47:28.494Z,993.17
2018-08-30T06:48:28.680Z,993.20
2018-08-30T06:49:28.884Z,993.28
2018-08-30T06:50:29.072Z,993.24
2018-08-30T06:51:29.258Z,993.25
2018-08-30T06:52:29.439Z,993.24
2018-08-30T06:53:31.164Z,993.24
2018-08-30T06:54:29.823Z,993.31
2018-08-30T06:55:29.997Z,993.28
2018-08-30T06:56:30.295Z,993.32
2018-08-30T06:57:30.373Z,993.30
2018-08-30T06:58:30.607Z,993.32
2018-08-30T06:59:30.739Z,993.35
2018-08-30T07:00:30.943Z,993.36
2018-08-30T07:01:31.117Z,993.33
2018-08-30T07:02:31.296Z,993.39
2018-08-30T07:03:31.488Z,993.37
2018-08-30T07:04:31.672Z,993.36
2018-08-30T07:05:31.918Z,993.37
2018-08-30T07:06:31.998Z,993.46
2018-08-30T07:07:32.278Z,993.45
2018-08-30T07:08:32.340Z,993.41
2018-08-30T07:09:32.521Z,993.44
2018-08-30T07:10:32.714Z,993.47
2018-08-30T07:11:32.933Z,993.46
2018-08-30T07:12:33.090Z,993.43
2018-08-30T07:13:33.266Z,993.50
2018-08-30T07:14:33.476Z,993.46
2018-08-30T07:15:33.636Z,993.52
2018-08-30T07:16:33.871Z,993.50
2018-08-30T07:17:34.012Z,993.53
2018-08-30T07:18:34.151Z,993.56
2018-08-30T07:19:34.334Z,993.57
2018-08-30T07:20:34.523Z,993.59
2018-08-30T07:21:34.705Z,993.60
2018-08-30T07:22:34.893Z,993.62
2018-08-30T07:23:35.063Z,993.63
2018-08-30T07:24:35.253Z,993.62
2018-08-30T07:25:35.437Z,993.66
2018-08-30T07:26:35.622Z,993.65
2018-08-30T07:27:35.812Z,993.66
2018-08-30T07:28:36.053Z,993.70
2018-08-30T07:29:36.173Z,993.67
2018-08-30T07:30:37.800Z,993.73
2018-08-30T07:31:39.571Z,993.78
2018-08-30T07:32:39.052Z,993.77
2018-08-30T07:33:38.805Z,993.78
2018-08-30T07:34:42.998Z,993.83
2018-08-30T07:35:39.999Z,993.83
2018-08-30T07:36:40.861Z,993.86
2018-08-30T07:37:40.058Z,993.87
2018-08-30T07:38:42.231Z,993.90
2018-08-30T07:39:39.948Z,993.87
2018-08-30T07:40:41.211Z,993.91
2018-08-30T07:41:40.336Z,993.92
2018-08-30T07:42:41.031Z,993.95
2018-08-30T07:43:42.142Z,993.94
2018-08-30T07:44:41.525Z,993.93
2018-08-30T07:45:42.187Z,994.01
2018-08-30T07:46:40.309Z,993.97
2018-08-30T07:47:42.244Z,994.02
2018-08-30T07:48:39.658Z,994.03
2018-08-30T07:49:41.493Z,994.06
2018-08-30T07:50:41.404Z,994.01
2018-08-30T07:51:43.075Z,994.06
2018-08-30T07:52:43.249Z,994.05
2018-08-30T07:53:41.756Z,994.09
2018-08-30T07:54:41.725Z,994.13
2018-08-30T07:55:41.201Z,994.10
2018-08-30T07:56:41.724Z,994.11
2018-08-30T07:57:42.173Z,994.12
2018-08-30T07:58:42.549Z,994.12
2018-08-30T07:59:42.615Z,994.13
2018-08-30T08:00:41.286Z,994.18
2018-08-30T08:01:41.365Z,994.16
2018-08-30T08:02:41.541Z,994.16
2018-08-30T08:03:41.742Z,994.20
2018-08-30T08:04:41.943Z,994.18
2018-08-30T08:05:42.120Z,994.23
2018-08-30T08:06:42.304Z,994.21
2018-08-30T08:07:42.496Z,994.28
2018-08-30T08:08:42.678Z,994.28
2018-08-30T08:09:42.874Z,994.28
2018-08-30T08:10:43.049Z,994.33
2018-08-30T08:11:43.260Z,994.34
2018-08-30T08:12:43.495Z,994.34
2018-08-30T08:13:43.659Z,994.37
2018-08-30T08:14:43.854Z,994.37
2018-08-30T08:15:44.026Z,994.42
2018-08-30T08:16:44.223Z,994.41
2018-08-30T08:17:44.404Z,994.50
2018-08-30T08:18:44.593Z,994.50
2018-08-30T08:19:44.781Z,994.48
2018-08-30T08:20:44.971Z,994.53
2018-08-30T08:21:45.155Z,994.53
2018-08-30T08:22:45.336Z,994.54
2018-08-30T08:23:45.521Z,994.58
2018-08-30T08:24:45.747Z,994.57
2018-08-30T08:25:45.915Z,994.57
2018-08-30T08:26:46.113Z,994.59
2018-08-30T08:27:46.300Z,994.59
2018-08-30T08:28:46.483Z,994.56
2018-08-30T08:29:46.671Z,994.62
2018-08-30T08:30:46.851Z,994.64
2018-08-30T08:31:47.038Z,994.63
2018-08-30T08:32:47.217Z,994.63
2018-08-30T08:33:47.408Z,994.66
2018-08-30T08:34:47.587Z,994.55
2018-08-30T08:35:47.772Z,994.66
2018-08-30T08:36:47.952Z,994.66
2018-08-30T08:37:48.136Z,994.66
2018-08-30T08:38:48.317Z,994.63
2018-08-30T08:39:48.525Z,994.72
2018-08-30T08:40:48.707Z,994.76
2018-08-30T08:41:48.891Z,994.74
2018-08-30T08:42:49.084Z,994.72
2018-08-30T08:43:49.243Z,994.78
2018-08-30T08:44:49.425Z,994.76
2018-08-30T08:45:49.599Z,994.78
2018-08-30T08:46:49.795Z,994.78
2018-08-30T08:47:50.056Z,994.80
2018-08-30T08:48:50.314Z,994.84
2018-08-30T08:49:50.416Z,994.82
2018-08-30T08:50:50.611Z,994.77
2018-08-30T08:51:50.663Z,994.81
2018-08-30T08:52:50.903Z,994.82
2018-08-30T08:53:51.126Z,994.72
2018-08-30T08:54:51.182Z,994.77
2018-08-30T08:55:51.279Z,994.82
2018-08-30T08:56:51.367Z,994.82
2018-08-30T08:57:51.586Z,994.81
2018-08-30T08:58:51.737Z,994.79
2018-08-30T08:59:51.864Z,994.82
2018-08-30T09:00:52.084Z,994.80
2018-08-30T09:01:52.295Z,994.86
2018-08-30T09:02:52.509Z,994.83
2018-08-30T09:03:52.888Z,994.88
2018-08-30T09:04:52.784Z,994.93
2018-08-30T09:05:53.043Z,994.90
2018-08-30T09:06:53.281Z,994.97
2018-08-30T09:07:53.421Z,994.93
2018-08-30T09:08:53.760Z,994.95
2018-08-30T09:09:53.779Z,994.92
2018-08-30T09:10:54.058Z,994.95
2018-08-30T09:11:54.092Z,994.91
2018-08-30T09:12:54.326Z,994.96
2018-08-30T09:13:54.739Z,994.94
2018-08-30T09:14:54.599Z,994.92
2018-08-30T09:15:54.793Z,994.97
2018-08-30T09:16:54.983Z,994.97
2018-08-30T09:17:55.159Z,994.96
2018-08-30T09:18:55.338Z,994.99
2018-08-30T09:19:55.531Z,994.98
2018-08-30T09:20:55.734Z,994.99
2018-08-30T09:21:55.899Z,995.03
2018-08-30T09:22:56.269Z,995.01
2018-08-30T09:23:56.267Z,994.98
2018-08-30T09:24:56.467Z,994.92
2018-08-30T09:25:56.654Z,994.95
2018-08-30T09:26:56.896Z,995.00
2018-08-30T09:27:57.021Z,995.02
2018-08-30T09:28:57.282Z,995.03
2018-08-30T09:29:57.326Z,995.04
2018-08-30T09:30:57.619Z,995.07
2018-08-30T09:31:57.691Z,995.07
2018-08-30T09:32:57.875Z,995.10
2018-08-30T09:33:58.177Z,995.11
2018-08-30T09:34:58.796Z,995.06
2018-08-30T09:35:59.061Z,995.00
2018-08-30T09:36:58.563Z,995.04
2018-08-30T09:37:58.742Z,995.07
2018-08-30T09:38:58.929Z,995.05
2018-08-30T09:39:59.148Z,995.09
2018-08-30T09:40:59.300Z,995.08
2018-08-30T09:41:59.486Z,995.09
2018-08-30T09:42:59.683Z,995.08
2018-08-30T09:43:59.875Z,995.07
2018-08-30T09:45:03.018Z,995.11
2018-08-30T09:46:03.281Z,995.08
2018-08-30T09:47:00.313Z,995.09
2018-08-30T09:48:00.499Z,995.15
2018-08-30T09:49:00.683Z,995.14
2018-08-30T09:50:00.869Z,995.11
2018-08-30T09:51:01.061Z,995.14
2018-08-30T09:52:01.274Z,995.15
2018-08-30T09:53:01.888Z,995.17
2018-08-30T09:54:01.666Z,995.21
2018-08-30T09:55:01.892Z,995.21
2018-08-30T09:56:02.082Z,995.20
2018-08-30T09:57:02.339Z,995.19
2018-08-30T09:58:02.490Z,995.18
2018-08-30T09:59:02.648Z,995.28
2018-08-30T10:00:02.835Z,995.28
2018-08-30T10:01:03.020Z,995.20
2018-08-30T10:02:03.207Z,995.31
2018-08-30T10:03:03.848Z,995.31
2018-08-30T10:04:03.525Z,995.25
2018-08-30T10:05:03.728Z,995.30
2018-08-30T10:06:03.895Z,995.30
2018-08-30T10:07:04.098Z,995.32
2018-08-30T10:08:04.290Z,995.30
2018-08-30T10:09:04.531Z,995.23
2018-08-30T10:10:04.667Z,995.23
2018-08-30T10:11:04.847Z,995.20
2018-08-30T10:12:05.038Z,995.24
2018-08-30T10:13:05.223Z,995.22
2018-08-30T10:14:05.407Z,995.29
2018-08-30T10:15:05.609Z,995.26
2018-08-30T10:16:05.788Z,995.23
2018-08-30T10:17:05.975Z,995.26
2018-08-30T10:18:06.154Z,995.31
2018-08-30T10:19:06.346Z,995.27
2018-08-30T10:20:06.570Z,995.31
2018-08-30T10:21:06.625Z,995.28
2018-08-30T10:22:06.857Z,995.29
2018-08-30T10:23:06.923Z,995.28
2018-08-30T10:24:07.112Z,995.27
2018-08-30T10:25:07.298Z,995.29
2018-08-30T10:26:07.483Z,995.30
2018-08-30T10:27:07.667Z,995.33
2018-08-30T10:28:07.845Z,995.31
2018-08-30T10:29:08.036Z,995.33
2018-08-30T10:30:08.208Z,995.35
2018-08-30T10:31:08.441Z,995.35
2018-08-30T10:32:08.491Z,995.32
2018-08-30T10:33:08.682Z,995.34
2018-08-30T10:34:08.869Z,995.38
2018-08-30T10:35:09.063Z,995.39
2018-08-30T10:36:09.247Z,995.38
2018-08-30T10:37:09.508Z,995.37
2018-08-30T10:38:09.619Z,995.37
2018-08-30T10:39:09.804Z,995.37
2018-08-30T10:40:09.981Z,995.39
2018-08-30T10:41:10.173Z,995.44
2018-08-30T10:42:10.358Z,995.41
2018-08-30T10:43:10.530Z,995.38
2018-08-30T10:44:10.716Z,995.45
2018-08-30T10:45:10.900Z,995.44
2018-08-30T10:46:11.086Z,995.43
2018-08-30T10:47:11.274Z,995.41
2018-08-30T10:48:11.455Z,995.44
2018-08-30T10:49:11.645Z,995.43
2018-08-30T10:50:11.821Z,995.43
2018-08-30T10:51:11.998Z,995.45
2018-08-30T10:52:12.187Z,995.44
2018-08-30T10:53:12.369Z,995.44
2018-08-30T10:54:12.578Z,995.46
2018-08-30T10:55:12.758Z,995.43
2018-08-30T10:56:12.974Z,995.38
2018-08-30T10:57:13.145Z,995.35
2018-08-30T10:58:13.338Z,995.34
2018-08-30T10:59:13.521Z,995.36
2018-08-30T11:00:13.710Z,995.38
2018-08-30T11:01:13.895Z,995.36
2018-08-30T11:02:14.082Z,995.40
2018-08-30T11:03:14.272Z,995.40
2018-08-30T11:04:14.464Z,995.42
2018-08-30T11:05:14.641Z,995.40
2018-08-30T11:06:14.822Z,995.44
2018-08-30T11:07:15.724Z,995.44
2018-08-30T11:08:15.135Z,995.44
2018-08-30T11:09:15.365Z,995.47
2018-08-30T11:10:15.504Z,995.47
2018-08-30T11:11:15.689Z,995.49
2018-08-30T11:12:15.880Z,995.49
2018-08-30T11:13:16.115Z,995.50
2018-08-30T11:14:16.256Z,995.50
2018-08-30T11:15:16.445Z,995.50
2018-08-30T11:16:16.634Z,995.49
2018-08-30T11:17:17.274Z,995.52
2018-08-30T11:18:17.002Z,995.51
2018-08-30T11:19:17.373Z,995.54
2018-08-30T11:20:17.300Z,995.52
2018-08-30T11:21:17.473Z,995.49
2018-08-30T11:22:17.668Z,995.51
2018-08-30T11:23:20.850Z,995.55
2018-08-30T11:24:17.963Z,995.54
2018-08-30T11:25:18.140Z,995.58
2018-08-30T11:26:18.331Z,995.55
2018-08-30T11:27:18.568Z,995.59
2018-08-30T11:28:18.736Z,995.63
2018-08-30T11:29:18.922Z,995.63
2018-08-30T11:30:19.118Z,995.66
2018-08-30T11:31:19.302Z,995.71
2018-08-30T11:32:20.241Z,995.70
2018-08-30T11:33:19.628Z,995.68
2018-08-30T11:34:19.823Z,995.73
2018-08-30T11:35:20.008Z,995.69
2018-08-30T11:36:20.206Z,995.72
2018-08-30T11:37:20.441Z,995.74
2018-08-30T11:38:20.492Z,995.71
2018-08-30T11:39:23.311Z,995.71
2018-08-30T11:40:20.921Z,995.72
2018-08-30T11:41:21.194Z,995.69
2018-08-30T11:42:22.419Z,995.71
2018-08-30T11:43:22.275Z,995.74
2018-08-30T11:44:22.762Z,995.75
2018-08-30T11:45:22.870Z,995.75
2018-08-30T11:46:24.531Z,995.80
2018-08-30T11:47:23.450Z,995.78
2018-08-30T11:48:24.542Z,995.75
2018-08-30T11:49:22.293Z,995.80
2018-08-30T11:50:22.500Z,995.79
2018-08-30T11:51:25.883Z,995.79
2018-08-30T11:52:25.078Z,995.83
2018-08-30T11:53:24.979Z,995.88
2018-08-30T11:54:26.579Z,995.87
2018-08-30T11:55:23.703Z,995.89
2018-08-30T11:56:23.769Z,995.88
2018-08-30T11:57:23.970Z,995.89
2018-08-30T11:58:24.018Z,995.89
2018-08-30T11:59:24.126Z,995.86
2018-08-30T12:00:24.310Z,995.87
2018-08-30T12:01:24.495Z,995.81
2018-08-30T12:02:26.027Z,995.85
2018-08-30T12:03:27.712Z,995.89
2018-08-30T12:04:26.777Z,995.90
2018-08-30T12:05:25.262Z,995.88
2018-08-30T12:06:27.363Z,995.84
2018-08-30T12:07:25.315Z,995.85
2018-08-30T12:08:25.506Z,995.84
2018-08-30T12:09:25.498Z,995.88
2018-08-30T12:10:25.755Z,995.93
2018-08-30T12:11:25.960Z,996.00
2018-08-30T12:12:26.096Z,996.04
2018-08-30T12:13:26.313Z,996.03
2018-08-30T12:14:26.511Z,996.00
2018-08-30T12:15:26.678Z,995.96
2018-08-30T12:16:26.888Z,995.98
2018-08-30T12:17:27.229Z,995.96
2018-08-30T12:18:27.164Z,995.95
2018-08-30T12:19:27.342Z,995.96
2018-08-30T12:20:27.536Z,995.92
2018-08-30T12:21:27.719Z,995.90
2018-08-30T12:22:27.928Z,995.88
2018-08-30T12:23:28.111Z,995.87
2018-08-30T12:24:28.319Z,995.88
2018-08-30T12:25:28.497Z,995.95
2018-08-30T12:26:28.690Z,995.90
2018-08-30T12:27:28.877Z,995.88
2018-08-30T12:28:29.118Z,995.90
2018-08-30T12:29:29.292Z,995.95
2018-08-30T12:30:31.127Z,995.94